sensor_id;sensor_type;location;lat;lon;timestamp;pressure;altitude;pressure_sealevel;temperature;humidity
41688;BME280;27371;42.686;23.362;2024-02-26T00:00:36;164235.50;;;7.82;100.00
41688;BME280;27371;42.686;23.362;2024-02-26T00:03:02;164230.16;;;7.80;100.00
41688;BME280;27371;42.686;23.362;2024-02-26T00:05:28;164199.47;;;7.68;100.00
41688;BME280;27371;42.686;23.362;2024-02-26T00:07:53;164248.84;;;7.87;100.00
41688;BME280;27371;42.686;23.362;2024-02-26T00:10:19;164255.53;;;7.90;100.00
41688;BME280;27371;42.686;23.362;2024-02-26T00:12:44;164232.84;;;7.81;100.00
41688;BME280;27371;42.686;23.362;2024-02-26T00:15:10;164140.81;;;7.46;100.00
41688;BME280;27371;42.686;23.362;2024-02-26T00:17:36;164048.78;;;7.10;100.00
41688;BME280;27371;42.686;23.362;2024-02-26T00:20:05;163975.44;;;6.82;100.00
41688;BME280;27371;42.686;23.362;2024-02-26T00:22:34;164012.78;;;6.97;100.00
41688;BME280;27371;42.686;23.362;2024-02-26T00:25:00;164016.78;;;6.98;100.00
41688;BME280;27371;42.686;23.362;2024-02-26T00:27:25;164059.47;;;7.14;100.00
41688;BME280;27371;42.686;23.362;2024-02-26T00:29:51;164082.13;;;7.23;100.00
41688;BME280;27371;42.686;23.362;2024-02-26T00:32:16;164074.13;;;7.20;100.00
41688;BME280;27371;42.686;23.362;2024-02-26T00:34:42;164127.44;;;7.41;100.00
41688;BME280;27371;42.686;23.362;2024-02-26T00:37:07;164156.78;;;7.52;100.00
41688;BME280;27371;42.686;23.362;2024-02-26T00:39:33;164164.78;;;7.55;100.00
41688;BME280;27371;42.686;23.362;2024-02-26T00:41:58;164187.50;;;7.64;100.00
41688;BME280;27371;42.686;23.362;2024-02-26T00:44:24;164200.81;;;7.69;100.00
41688;BME280;27371;42.686;23.362;2024-02-26T00:46:50;164218.19;;;7.75;100.00
41688;BME280;27371;42.686;23.362;2024-02-26T00:49:15;164202.19;;;7.69;100.00
41688;BME280;27371;42.686;23.362;2024-02-26T00:51:41;164228.81;;;7.79;100.00
41688;BME280;27371;42.686;23.362;2024-02-26T00:54:06;164232.84;;;7.81;100.00
41688;BME280;27371;42.686;23.362;2024-02-26T00:56:32;164191.47;;;7.65;100.00
41688;BME280;27371;42.686;23.362;2024-02-26T00:58:58;164236.81;;;7.82;100.00
41688;BME280;27371;42.686;23.362;2024-02-26T01:01:39;164208.81;;;7.72;100.00
41688;BME280;27371;42.686;23.362;2024-02-26T01:04:04;164163.47;;;7.54;100.00
41688;BME280;27371;42.686;23.362;2024-02-26T01:06:30;164070.09;;;7.19;100.00
41688;BME280;27371;42.686;23.362;2024-02-26T01:08:55;164060.78;;;7.15;100.00
41688;BME280;27371;42.686;23.362;2024-02-26T01:11:21;164054.13;;;7.12;100.00
41688;BME280;27371;42.686;23.362;2024-02-26T01:13:46;164040.78;;;7.07;100.00
41688;BME280;27371;42.686;23.362;2024-02-26T01:16:12;164063.44;;;7.16;100.00
41688;BME280;27371;42.686;23.362;2024-02-26T01:18:37;164099.44;;;7.30;100.00
41688;BME280;27371;42.686;23.362;2024-02-26T01:21:03;164074.13;;;7.20;100.00
41688;BME280;27371;42.686;23.362;2024-02-26T01:23:32;164128.78;;;7.41;100.00
41688;BME280;27371;42.686;23.362;2024-02-26T01:25:57;164135.44;;;7.44;100.00
41688;BME280;27371;42.686;23.362;2024-02-26T01:28:23;164147.47;;;7.48;100.00
41688;BME280;27371;42.686;23.362;2024-02-26T01:30:48;164151.50;;;7.50;100.00
41688;BME280;27371;42.686;23.362;2024-02-26T01:33:14;164150.13;;;7.49;100.00
41688;BME280;27371;42.686;23.362;2024-02-26T01:35:39;164196.84;;;7.67;100.00
41688;BME280;27371;42.686;23.362;2024-02-26T01:38:05;164195.50;;;7.67;100.00
41688;BME280;27371;42.686;23.362;2024-02-26T01:40:31;164200.81;;;7.69;100.00
41688;BME280;27371;42.686;23.362;2024-02-26T01:42:56;164194.13;;;7.66;100.00
41688;BME280;27371;42.686;23.362;2024-02-26T01:45:22;164224.84;;;7.78;100.00
41688;BME280;27371;42.686;23.362;2024-02-26T01:47:50;164210.19;;;7.72;100.00
41688;BME280;27371;42.686;23.362;2024-02-26T01:50:17;164208.81;;;7.72;100.00
41688;BME280;27371;42.686;23.362;2024-02-26T01:52:45;164112.78;;;7.35;100.00
41688;BME280;27371;42.686;23.362;2024-02-26T01:55:12;164039.44;;;7.07;100.00
41688;BME280;27371;42.686;23.362;2024-02-26T01:57:40;163991.44;;;6.88;100.00
41688;BME280;27371;42.686;23.362;2024-02-26T02:00:07;164003.44;;;6.93;100.00
41688;BME280;27371;42.686;23.362;2024-02-26T02:02:32;164018.13;;;6.99;100.00
41688;BME280;27371;42.686;23.362;2024-02-26T02:04:58;164039.44;;;7.07;100.00
41688;BME280;27371;42.686;23.362;2024-02-26T02:07:24;164046.13;;;7.09;100.00
41688;BME280;27371;42.686;23.362;2024-02-26T02:09:50;164062.13;;;7.16;100.00
41688;BME280;27371;42.686;23.362;2024-02-26T02:12:15;164102.16;;;7.31;100.00
41688;BME280;27371;42.686;23.362;2024-02-26T02:14:41;164094.16;;;7.28;100.00
41688;BME280;27371;42.686;23.362;2024-02-26T02:17:07;164132.81;;;7.43;100.00
41688;BME280;27371;42.686;23.362;2024-02-26T02:19:32;164151.50;;;7.50;100.00
41688;BME280;27371;42.686;23.362;2024-02-26T02:21:58;164160.81;;;7.53;100.00
41688;BME280;27371;42.686;23.362;2024-02-26T02:24:23;164182.16;;;7.62;100.00
41688;BME280;27371;42.686;23.362;2024-02-26T02:26:49;164195.50;;;7.67;100.00
41688;BME280;27371;42.686;23.362;2024-02-26T02:29:15;164180.84;;;7.61;100.00
41688;BME280;27371;42.686;23.362;2024-02-26T02:31:41;164183.47;;;7.62;100.00
41688;BME280;27371;42.686;23.362;2024-02-26T02:34:08;164183.47;;;7.62;100.00
41688;BME280;27371;42.686;23.362;2024-02-26T02:36:34;164202.19;;;7.69;100.00
41688;BME280;27371;42.686;23.362;2024-02-26T02:39:00;164184.81;;;7.63;100.00
41688;BME280;27371;42.686;23.362;2024-02-26T02:41:25;164142.13;;;7.46;100.00
41688;BME280;27371;42.686;23.362;2024-02-26T02:43:52;164095.47;;;7.28;100.00
41688;BME280;27371;42.686;23.362;2024-02-26T02:46:18;164059.47;;;7.14;100.00
41688;BME280;27371;42.686;23.362;2024-02-26T02:48:44;164066.13;;;7.17;100.00
41688;BME280;27371;42.686;23.362;2024-02-26T02:51:09;164083.44;;;7.24;100.00
41688;BME280;27371;42.686;23.362;2024-02-26T02:53:35;164040.78;;;7.07;100.00
41688;BME280;27371;42.686;23.362;2024-02-26T02:56:01;164127.44;;;7.41;100.00
41688;BME280;27371;42.686;23.362;2024-02-26T02:58:26;164139.47;;;7.45;100.00
41688;BME280;27371;42.686;23.362;2024-02-26T03:00:52;164151.50;;;7.50;100.00
41688;BME280;27371;42.686;23.362;2024-02-26T03:03:20;164176.81;;;7.59;100.00
41688;BME280;27371;42.686;23.362;2024-02-26T03:05:46;164176.81;;;7.59;100.00
41688;BME280;27371;42.686;23.362;2024-02-26T03:08:11;164187.50;;;7.64;100.00
41688;BME280;27371;42.686;23.362;2024-02-26T03:10:37;164219.50;;;7.76;100.00
41688;BME280;27371;42.686;23.362;2024-02-26T03:13:02;164228.81;;;7.79;100.00
41688;BME280;27371;42.686;23.362;2024-02-26T03:15:28;164232.84;;;7.81;100.00
41688;BME280;27371;42.686;23.362;2024-02-26T03:17:53;164240.84;;;7.84;100.00
41688;BME280;27371;42.686;23.362;2024-02-26T03:20:20;164246.19;;;7.86;100.00
41688;BME280;27371;42.686;23.362;2024-02-26T03:22:45;164240.84;;;7.84;100.00
41688;BME280;27371;42.686;23.362;2024-02-26T03:25:11;164263.53;;;7.93;100.00
41688;BME280;27371;42.686;23.362;2024-02-26T03:27:36;164250.16;;;7.88;100.00
41688;BME280;27371;42.686;23.362;2024-02-26T03:30:02;164192.81;;;7.66;100.00
41688;BME280;27371;42.686;23.362;2024-02-26T03:32:28;164094.16;;;7.28;100.00
41688;BME280;27371;42.686;23.362;2024-02-26T03:34:54;164043.44;;;7.08;100.00
41688;BME280;27371;42.686;23.362;2024-02-26T03:37:21;164012.78;;;6.97;100.00
41688;BME280;27371;42.686;23.362;2024-02-26T03:39:46;164006.09;;;6.94;100.00
41688;BME280;27371;42.686;23.362;2024-02-26T03:42:12;164030.13;;;7.03;100.00
41688;BME280;27371;42.686;23.362;2024-02-26T03:44:37;164008.81;;;6.95;100.00
41688;BME280;27371;42.686;23.362;2024-02-26T03:47:03;164072.81;;;7.20;100.00
41688;BME280;27371;42.686;23.362;2024-02-26T03:49:29;164075.47;;;7.21;100.00
41688;BME280;27371;42.686;23.362;2024-02-26T03:51:54;164075.47;;;7.21;100.00
41688;BME280;27371;42.686;23.362;2024-02-26T03:54:20;164107.44;;;7.33;100.00
41688;BME280;27371;42.686;23.362;2024-02-26T03:56:45;164115.50;;;7.36;100.00
41688;BME280;27371;42.686;23.362;2024-02-26T03:59:11;164123.47;;;7.39;100.00
41688;BME280;27371;42.686;23.362;2024-02-26T04:01:36;164134.13;;;7.43;100.00
41688;BME280;27371;42.686;23.362;2024-02-26T04:04:02;164154.16;;;7.51;100.00
41688;BME280;27371;42.686;23.362;2024-02-26T04:06:27;164163.47;;;7.54;100.00
41688;BME280;27371;42.686;23.362;2024-02-26T04:08:53;164196.84;;;7.67;100.00
41688;BME280;27371;42.686;23.362;2024-02-26T04:11:19;164162.16;;;7.54;100.00
41688;BME280;27371;42.686;23.362;2024-02-26T04:13:45;164150.13;;;7.49;100.00
41688;BME280;27371;42.686;23.362;2024-02-26T04:16:12;164071.44;;;7.19;100.00
41688;BME280;27371;42.686;23.362;2024-02-26T04:18:37;164075.47;;;7.21;100.00
41688;BME280;27371;42.686;23.362;2024-02-26T04:21:04;164056.78;;;7.13;100.00
41688;BME280;27371;42.686;23.362;2024-02-26T04:23:31;164038.13;;;7.06;100.00
41688;BME280;27371;42.686;23.362;2024-02-26T04:25:56;164024.78;;;7.01;100.00
41688;BME280;27371;42.686;23.362;2024-02-26T04:28:22;163975.44;;;6.82;100.00
41688;BME280;27371;42.686;23.362;2024-02-26T04:30:50;163875.47;;;6.44;100.00
41688;BME280;27371;42.686;23.362;2024-02-26T04:33:16;163820.81;;;6.23;100.00
41688;BME280;27371;42.686;23.362;2024-02-26T04:35:42;163784.81;;;6.09;100.00
41688;BME280;27371;42.686;23.362;2024-02-26T04:38:08;163774.19;;;6.05;100.00
41688;BME280;27371;42.686;23.362;2024-02-26T04:40:33;163807.53;;;6.18;100.00
41688;BME280;27371;42.686;23.362;2024-02-26T04:42:59;163838.16;;;6.30;100.00
41688;BME280;27371;42.686;23.362;2024-02-26T04:45:24;163848.78;;;6.34;100.00
41688;BME280;27371;42.686;23.362;2024-02-26T04:47:50;163844.81;;;6.32;100.00
41688;BME280;27371;42.686;23.362;2024-02-26T04:50:15;163886.16;;;6.48;100.00
41688;BME280;27371;42.686;23.362;2024-02-26T04:52:41;163892.81;;;6.51;100.00
41688;BME280;27371;42.686;23.362;2024-02-26T04:55:07;163888.81;;;6.49;100.00
41688;BME280;27371;42.686;23.362;2024-02-26T04:57:33;163896.78;;;6.52;100.00
41688;BME280;27371;42.686;23.362;2024-02-26T04:59:58;163864.81;;;6.40;100.00
41688;BME280;27371;42.686;23.362;2024-02-26T05:02:24;163879.50;;;6.45;100.00
41688;BME280;27371;42.686;23.362;2024-02-26T05:04:50;163866.16;;;6.40;100.00
41688;BME280;27371;42.686;23.362;2024-02-26T05:07:15;163880.81;;;6.46;100.00
41688;BME280;27371;42.686;23.362;2024-02-26T05:09:43;163867.47;;;6.41;100.00
41688;BME280;27371;42.686;23.362;2024-02-26T05:12:09;163798.16;;;6.14;100.00
41688;BME280;27371;42.686;23.362;2024-02-26T05:14:35;163746.19;;;5.94;100.00
41688;BME280;27371;42.686;23.362;2024-02-26T05:17:00;163731.50;;;5.89;100.00
41688;BME280;27371;42.686;23.362;2024-02-26T05:19:26;163691.50;;;5.73;100.00
41688;BME280;27371;42.686;23.362;2024-02-26T05:21:52;163760.84;;;6.00;100.00
41688;BME280;27371;42.686;23.362;2024-02-26T05:24:18;163832.81;;;6.28;100.00
41688;BME280;27371;42.686;23.362;2024-02-26T05:26:45;163846.16;;;6.33;100.00
41688;BME280;27371;42.686;23.362;2024-02-26T05:29:11;163839.47;;;6.30;100.00
41688;BME280;27371;42.686;23.362;2024-02-26T05:31:36;163688.84;;;5.72;100.00
41688;BME280;27371;42.686;23.362;2024-02-26T05:34:02;163678.22;;;5.68;100.00
41688;BME280;27371;42.686;23.362;2024-02-26T05:36:27;163682.19;;;5.70;100.00
41688;BME280;27371;42.686;23.362;2024-02-26T05:38:59;163699.53;;;5.76;100.00
41688;BME280;27371;42.686;23.362;2024-02-26T05:41:25;163744.88;;;5.94;100.00
41688;BME280;27371;42.686;23.362;2024-02-26T05:43:52;163800.84;;;6.15;100.00
41688;BME280;27371;42.686;23.362;2024-02-26T05:46:19;163814.19;;;6.20;100.00
41688;BME280;27371;42.686;23.362;2024-02-26T05:48:47;163846.16;;;6.33;100.00
41688;BME280;27371;42.686;23.362;2024-02-26T05:51:13;163872.81;;;6.43;100.00
41688;BME280;27371;42.686;23.362;2024-02-26T05:53:38;163907.47;;;6.56;100.00
41688;BME280;27371;42.686;23.362;2024-02-26T05:56:04;163912.78;;;6.58;100.00
41688;BME280;27371;42.686;23.362;2024-02-26T05:58:31;163934.13;;;6.66;100.00
41688;BME280;27371;42.686;23.362;2024-02-26T06:00:56;163970.09;;;6.80;100.00
41688;BME280;27371;42.686;23.362;2024-02-26T06:03:22;164010.13;;;6.96;100.00
41688;BME280;27371;42.686;23.362;2024-02-26T06:05:48;163971.44;;;6.81;100.00
41688;BME280;27371;42.686;23.362;2024-02-26T06:08:13;164031.47;;;7.04;100.00
41688;BME280;27371;42.686;23.362;2024-02-26T06:10:39;164074.13;;;7.20;100.00
41688;BME280;27371;42.686;23.362;2024-02-26T06:13:05;164084.78;;;7.24;100.00
41688;BME280;27371;42.686;23.362;2024-02-26T06:15:30;164132.81;;;7.43;100.00
41688;BME280;27371;42.686;23.362;2024-02-26T06:17:56;164147.47;;;7.48;100.00
41688;BME280;27371;42.686;23.362;2024-02-26T06:20:21;164122.09;;;7.39;100.00
41688;BME280;27371;42.686;23.362;2024-02-26T06:22:47;164020.78;;;7.00;100.00
41688;BME280;27371;42.686;23.362;2024-02-26T06:25:12;163964.81;;;6.78;100.00
41688;BME280;27371;42.686;23.362;2024-02-26T06:27:38;163943.47;;;6.70;100.00
41688;BME280;27371;42.686;23.362;2024-02-26T06:30:04;163932.78;;;6.66;100.00
41688;BME280;27371;42.686;23.362;2024-02-26T06:32:30;163934.13;;;6.66;100.00
41688;BME280;27371;42.686;23.362;2024-02-26T06:34:55;163928.81;;;6.64;100.00
41688;BME280;27371;42.686;23.362;2024-02-26T06:37:21;163958.13;;;6.76;100.00
41688;BME280;27371;42.686;23.362;2024-02-26T06:39:48;163987.47;;;6.87;100.00
41688;BME280;27371;42.686;23.362;2024-02-26T06:42:14;164004.78;;;6.94;100.00
41688;BME280;27371;42.686;23.362;2024-02-26T06:44:39;164027.44;;;7.02;100.00
41688;BME280;27371;42.686;23.362;2024-02-26T06:47:05;164044.81;;;7.09;100.00
41688;BME280;27371;42.686;23.362;2024-02-26T06:49:31;164071.44;;;7.19;100.00
41688;BME280;27371;42.686;23.362;2024-02-26T06:51:56;164088.81;;;7.26;100.00
41688;BME280;27371;42.686;23.362;2024-02-26T06:54:22;164119.47;;;7.38;100.00
41688;BME280;27371;42.686;23.362;2024-02-26T06:56:48;164128.78;;;7.41;100.00
41688;BME280;27371;42.686;23.362;2024-02-26T06:59:13;164156.78;;;7.52;100.00
41688;BME280;27371;42.686;23.362;2024-02-26T07:01:42;164162.16;;;7.54;100.00
41688;BME280;27371;42.686;23.362;2024-02-26T07:04:08;164108.81;;;7.33;100.00
41688;BME280;27371;42.686;23.362;2024-02-26T07:06:36;163963.44;;;6.78;100.00
41688;BME280;27371;42.686;23.362;2024-02-26T07:09:01;163950.09;;;6.73;100.00
41688;BME280;27371;42.686;23.362;2024-02-26T07:11:27;163994.13;;;6.89;100.00
41688;BME280;27371;42.686;23.362;2024-02-26T07:13:52;164034.09;;;7.05;100.00
41688;BME280;27371;42.686;23.362;2024-02-26T07:16:18;164058.13;;;7.14;100.00
41688;BME280;27371;42.686;23.362;2024-02-26T07:18:43;164102.16;;;7.31;100.00
41688;BME280;27371;42.686;23.362;2024-02-26T07:21:09;164111.47;;;7.34;100.00
41688;BME280;27371;42.686;23.362;2024-02-26T07:23:37;164139.47;;;7.45;100.00
41688;BME280;27371;42.686;23.362;2024-02-26T07:26:02;164160.81;;;7.53;100.00
41688;BME280;27371;42.686;23.362;2024-02-26T07:28:28;164184.81;;;7.63;100.00
41688;BME280;27371;42.686;23.362;2024-02-26T07:30:54;164226.19;;;7.78;100.00
41688;BME280;27371;42.686;23.362;2024-02-26T07:33:19;164198.16;;;7.68;100.00
41688;BME280;27371;42.686;23.362;2024-02-26T07:35:45;164240.84;;;7.84;100.00
41688;BME280;27371;42.686;23.362;2024-02-26T07:38:10;164279.53;;;7.99;100.00
41688;BME280;27371;42.686;23.362;2024-02-26T07:40:38;164286.19;;;8.01;100.00
41688;BME280;27371;42.686;23.362;2024-02-26T07:43:03;164318.25;;;8.14;100.00
41688;BME280;27371;42.686;23.362;2024-02-26T07:45:29;164299.53;;;8.07;100.00
41688;BME280;27371;42.686;23.362;2024-02-26T07:47:55;164212.81;;;7.73;100.00
41688;BME280;27371;42.686;23.362;2024-02-26T07:50:20;164136.78;;;7.44;100.00
41688;BME280;27371;42.686;23.362;2024-02-26T07:52:46;164104.78;;;7.32;100.00
41688;BME280;27371;42.686;23.362;2024-02-26T07:55:11;164098.13;;;7.29;100.00
41688;BME280;27371;42.686;23.362;2024-02-26T07:57:37;164150.13;;;7.49;100.00
41688;BME280;27371;42.686;23.362;2024-02-26T08:00:04;164194.13;;;7.66;100.00
41688;BME280;27371;42.686;23.362;2024-02-26T08:02:32;164238.19;;;7.83;100.00
41688;BME280;27371;42.686;23.362;2024-02-26T08:04:59;164282.22;;;8.00;100.00
41688;BME280;27371;42.686;23.362;2024-02-26T08:07:24;164338.22;;;8.21;100.00
41688;BME280;27371;42.686;23.362;2024-02-26T08:09:50;164360.94;;;8.30;100.00
41688;BME280;27371;42.686;23.362;2024-02-26T08:12:16;164371.59;;;8.34;100.00
41688;BME280;27371;42.686;23.362;2024-02-26T08:14:42;164399.69;;;8.45;100.00
41688;BME280;27371;42.686;23.362;2024-02-26T08:17:09;164413.03;;;8.50;100.00
41688;BME280;27371;42.686;23.362;2024-02-26T08:19:35;164443.72;;;8.62;100.00
41688;BME280;27371;42.686;23.362;2024-02-26T08:22:01;164454.41;;;8.66;100.00
41688;BME280;27371;42.686;23.362;2024-02-26T08:24:27;164462.41;;;8.69;100.00
41688;BME280;27371;42.686;23.362;2024-02-26T08:26:53;164503.75;;;8.85;100.00
41688;BME280;27371;42.686;23.362;2024-02-26T08:29:18;164537.16;;;8.98;100.00
41688;BME280;27371;42.686;23.362;2024-02-26T08:31:44;164571.88;;;9.11;100.00
41688;BME280;27371;42.686;23.362;2024-02-26T08:34:09;164591.91;;;9.19;100.00
41688;BME280;27371;42.686;23.362;2024-02-26T08:36:36;164661.31;;;9.45;100.00
41688;BME280;27371;42.686;23.362;2024-02-26T08:39:02;164599.91;;;9.22;96.73
41688;BME280;27371;42.686;23.362;2024-02-26T08:41:28;164554.53;;;9.04;95.99
41688;BME280;27371;42.686;23.362;2024-02-26T08:43:53;164515.78;;;8.89;99.08
41688;BME280;27371;42.686;23.362;2024-02-26T08:46:20;164526.50;;;8.94;99.96
41688;BME280;27371;42.686;23.362;2024-02-26T08:48:45;164518.50;;;8.90;100.00
41688;BME280;27371;42.686;23.362;2024-02-26T08:51:11;164587.88;;;9.17;100.00
41688;BME280;27371;42.686;23.362;2024-02-26T08:53:36;164673.34;;;9.50;100.00
41688;BME280;27371;42.686;23.362;2024-02-26T08:56:02;164724.09;;;9.69;100.00
41688;BME280;27371;42.686;23.362;2024-02-26T08:58:28;164797.56;;;9.97;99.80
41688;BME280;27371;42.686;23.362;2024-02-26T09:00:54;164837.66;;;10.13;98.03
41688;BME280;27371;42.686;23.362;2024-02-26T09:03:20;164893.84;;;10.34;96.57
41688;BME280;27371;42.686;23.362;2024-02-26T09:05:46;164945.94;;;10.54;94.71
41688;BME280;27371;42.686;23.362;2024-02-26T09:08:11;164956.59;;;10.58;93.69
41688;BME280;27371;42.686;23.362;2024-02-26T09:10:38;164968.63;;;10.63;92.49
41688;BME280;27371;42.686;23.362;2024-02-26T09:13:04;165008.75;;;10.78;90.46
41688;BME280;27371;42.686;23.362;2024-02-26T09:15:29;165032.81;;;10.87;88.13
41688;BME280;27371;42.686;23.362;2024-02-26T09:17:55;165024.78;;;10.84;87.48
41688;BME280;27371;42.686;23.362;2024-02-26T09:20:21;165076.91;;;11.04;86.13
41688;BME280;27371;42.686;23.362;2024-02-26T09:22:47;165099.63;;;11.13;86.22
41688;BME280;27371;42.686;23.362;2024-02-26T09:25:13;165100.94;;;11.13;85.63
41688;BME280;27371;42.686;23.362;2024-02-26T09:27:41;165167.81;;;11.39;84.56
41688;BME280;27371;42.686;23.362;2024-02-26T09:30:09;165199.88;;;11.51;83.54
41688;BME280;27371;42.686;23.362;2024-02-26T09:32:35;165213.28;;;11.56;83.02
41688;BME280;27371;42.686;23.362;2024-02-26T09:35:01;165253.41;;;11.72;82.34
41688;BME280;27371;42.686;23.362;2024-02-26T09:37:26;165248.03;;;11.70;80.64
41688;BME280;27371;42.686;23.362;2024-02-26T09:39:52;165221.28;;;11.59;80.58
41688;BME280;27371;42.686;23.362;2024-02-26T09:42:19;165253.41;;;11.72;81.40
41688;BME280;27371;42.686;23.362;2024-02-26T09:44:45;165296.25;;;11.88;81.21
41688;BME280;27371;42.686;23.362;2024-02-26T09:47:11;165332.38;;;12.02;80.02
41688;BME280;27371;42.686;23.362;2024-02-26T09:49:43;165359.06;;;12.12;78.55
41688;BME280;27371;42.686;23.362;2024-02-26T09:52:08;165376.50;;;12.19;77.58
41688;BME280;27371;42.686;23.362;2024-02-26T09:54:35;165383.19;;;12.21;76.94
41688;BME280;27371;42.686;23.362;2024-02-26T09:57:02;165397.91;;;12.27;76.01
41688;BME280;27371;42.686;23.362;2024-02-26T09:59:35;165397.91;;;12.27;75.26
41688;BME280;27371;42.686;23.362;2024-02-26T10:02:04;165417.94;;;12.35;75.36
41688;BME280;27371;42.686;23.362;2024-02-26T10:04:31;165432.63;;;12.40;75.62
41688;BME280;27371;42.686;23.362;2024-02-26T10:06:57;165468.75;;;12.54;75.14
41688;BME280;27371;42.686;23.362;2024-02-26T10:09:25;165496.88;;;12.65;73.71
41688;BME280;27371;42.686;23.362;2024-02-26T10:11:51;165512.97;;;12.71;73.94
41688;BME280;27371;42.686;23.362;2024-02-26T10:14:16;165534.38;;;12.79;71.92
41688;BME280;27371;42.686;23.362;2024-02-26T10:16:42;165553.06;;;12.86;70.38
41688;BME280;27371;42.686;23.362;2024-02-26T10:19:08;165511.56;;;12.70;70.02
41688;BME280;27371;42.686;23.362;2024-02-26T10:21:36;165533.00;;;12.79;70.33
41688;BME280;27371;42.686;23.362;2024-02-26T10:24:01;165546.38;;;12.84;70.09
41688;BME280;27371;42.686;23.362;2024-02-26T10:26:27;165519.66;;;12.74;70.02
41688;BME280;27371;42.686;23.362;2024-02-26T10:28:53;165515.63;;;12.72;71.13
41688;BME280;27371;42.686;23.362;2024-02-26T10:31:24;165537.03;;;12.80;70.09
41688;BME280;27371;42.686;23.362;2024-02-26T10:33:55;165533.00;;;12.79;69.71
41688;BME280;27371;42.686;23.362;2024-02-26T10:36:21;165542.41;;;12.82;70.09
41688;BME280;27371;42.686;23.362;2024-02-26T10:38:47;165542.41;;;12.82;69.36
41688;BME280;27371;42.686;23.362;2024-02-26T10:41:14;165495.53;;;12.64;69.17
41688;BME280;27371;42.686;23.362;2024-02-26T10:43:42;165427.31;;;12.38;70.20
41688;BME280;27371;42.686;23.362;2024-02-26T10:46:09;165462.13;;;12.52;71.07
41688;BME280;27371;42.686;23.362;2024-02-26T10:48:35;165474.13;;;12.56;71.25
41688;BME280;27371;42.686;23.362;2024-02-26T10:51:01;165514.28;;;12.72;69.70
41688;BME280;27371;42.686;23.362;2024-02-26T10:53:29;165516.94;;;12.73;69.42
41688;BME280;27371;42.686;23.362;2024-02-26T10:55:59;165520.97;;;12.74;69.23
41688;BME280;27371;42.686;23.362;2024-02-26T10:58:26;165519.66;;;12.74;69.61
41688;BME280;27371;42.686;23.362;2024-02-26T11:00:52;165546.38;;;12.84;69.10
41688;BME280;27371;42.686;23.362;2024-02-26T11:03:18;165577.13;;;12.96;69.03
41688;BME280;27371;42.686;23.362;2024-02-26T11:05:50;165609.28;;;13.08;68.60
41688;BME280;27371;42.686;23.362;2024-02-26T11:08:18;165638.72;;;13.19;68.06
41688;BME280;27371;42.686;23.362;2024-02-26T11:10:47;165657.53;;;13.26;67.11
41688;BME280;27371;42.686;23.362;2024-02-26T11:13:14;165692.28;;;13.40;67.19
41688;BME280;27371;42.686;23.362;2024-02-26T11:15:40;165704.34;;;13.44;66.44
41688;BME280;27371;42.686;23.362;2024-02-26T11:18:07;165717.75;;;13.49;64.92
41688;BME280;27371;42.686;23.362;2024-02-26T11:20:34;165676.25;;;13.33;65.73
41688;BME280;27371;42.686;23.362;2024-02-26T11:23:03;165664.22;;;13.29;65.47
41688;BME280;27371;42.686;23.362;2024-02-26T11:25:29;165677.56;;;13.34;64.75
41688;BME280;27371;42.686;23.362;2024-02-26T11:27:58;165633.34;;;13.17;64.60
41688;BME280;27371;42.686;23.362;2024-02-26T11:30:30;165656.16;;;13.26;64.57
41688;BME280;27371;42.686;23.362;2024-02-26T11:32:57;165678.94;;;13.34;65.20
41688;BME280;27371;42.686;23.362;2024-02-26T11:35:23;165696.34;;;13.41;64.89
41688;BME280;27371;42.686;23.362;2024-02-26T11:37:56;165721.78;;;13.51;64.64
41688;BME280;27371;42.686;23.362;2024-02-26T11:40:26;165705.69;;;13.45;64.86
41688;BME280;27371;42.686;23.362;2024-02-26T11:42:53;165699.00;;;13.42;65.51
41688;BME280;27371;42.686;23.362;2024-02-26T11:50:40;165550.41;;;12.85;64.39
41688;BME280;27371;42.686;23.362;2024-02-26T11:53:32;165705.69;;;13.45;64.40
41688;BME280;27371;42.686;23.362;2024-02-26T11:56:13;165719.06;;;13.50;64.59
41688;BME280;27371;42.686;23.362;2024-02-26T11:58:39;165729.81;;;13.54;64.08
41688;BME280;27371;42.686;23.362;2024-02-26T12:01:48;165711.06;;;13.47;63.62
41688;BME280;27371;42.686;23.362;2024-02-26T12:04:15;165711.06;;;13.47;63.78
41688;BME280;27371;42.686;23.362;2024-02-26T12:06:49;165658.88;;;13.27;63.74
41688;BME280;27371;42.686;23.362;2024-02-26T12:09:34;165704.34;;;13.44;63.37
41688;BME280;27371;42.686;23.362;2024-02-26T12:12:05;165705.69;;;13.45;63.41
41688;BME280;27371;42.686;23.362;2024-02-26T12:14:55;165724.44;;;13.52;63.16
41688;BME280;27371;42.686;23.362;2024-02-26T12:17:20;165731.16;;;13.54;62.97
41688;BME280;27371;42.686;23.362;2024-02-26T12:19:46;165755.22;;;13.64;62.55
41688;BME280;27371;42.686;23.362;2024-02-26T12:22:15;165783.34;;;13.74;61.78
41688;BME280;27371;42.686;23.362;2024-02-26T12:24:42;165786.00;;;13.75;60.27
41688;BME280;27371;42.686;23.362;2024-02-26T12:27:07;165808.81;;;13.84;59.43
41688;BME280;27371;42.686;23.362;2024-02-26T12:29:33;165800.72;;;13.81;58.83
41688;BME280;27371;42.686;23.362;2024-02-26T12:31:59;165806.09;;;13.83;58.83
41688;BME280;27371;42.686;23.362;2024-02-26T12:34:27;165827.53;;;13.91;57.76
41688;BME280;27371;42.686;23.362;2024-02-26T12:36:54;165795.41;;;13.79;57.56
41688;BME280;27371;42.686;23.362;2024-02-26T12:39:20;165772.66;;;13.70;56.72
41688;BME280;27371;42.686;23.362;2024-02-26T12:41:46;165800.72;;;13.81;56.94